Time;durP1;ratioP1;P1;durP2;ratioP2;P2;SDS_P1;SDS_P2;PMS_P1;PMS_P2;Temp;Humidity;BMP_temperature;BMP_pressure;BME280_temperature;BME280_humidity;BME280_pressure;Samples;Min_cycle;Max_cycle;Signal;HPM_P1;HPM_P2
2022/11/16 00:00:15;;;;;;;;;;;;;;;;;;5094370;28;19970;-26
2022/11/16 00:02:41;;;;;;;;;;;;;;;;;;5094321;28;19913;-24
2022/11/16 00:05:07;;;;;;;;;;;;;;;;;;5094322;28;19912;-25
2022/11/16 00:07:33;;;;;;;;;;;;;;;;;;5094317;28;19908;-26
2022/11/16 00:09:59;;;;;;;;;;;;;;;;;;5094073;28;19920;-25
2022/11/16 00:12:25;;;;;;;;;;;;;;;;;;5094205;28;19908;-25
2022/11/16 00:14:51;;;;;;;;;;;;;;;;;;5094494;28;20011;-26
2022/11/16 00:17:17;;;;;;;;;;;;;;;;;;5096842;28;20243;-26
2022/11/16 00:19:43;;;;;;;;;;;;;;;;;;5098149;28;19973;-28
2022/11/16 00:22:09;;;;;;;;;;;;;;;;;;5097610;28;20257;-28
2022/11/16 00:24:35;;;;;;;;;;;;;;;;;;5097625;28;20007;-26
2022/11/16 00:27:01;;;;;;;;;;;;;;;;;;5097868;28;19986;-28
2022/11/16 00:29:27;;;;;;;;;;;;;;;;;;5097458;28;19970;-27
2022/11/16 00:31:53;;;;;;;;;;;;;;;;;;5097686;28;19912;-28
2022/11/16 00:34:20;;;;;;;;;;;;;;;;;;5097446;28;19972;-42
2022/11/16 00:36:46;;;;;;;;;;;;;;;;;;5097672;28;19947;-25
2022/11/16 00:39:12;;;;;;;;;;;;;;;;;;5097659;28;19913;-26
2022/11/16 00:41:38;;;;;;;;;;;;;;;;;;5097679;28;20280;-28
2022/11/16 00:44:04;;;;;;;;;;;;;;;;;;5097334;28;19908;-28
2022/11/16 00:46:30;;;;;;;;;;;;;;;;;;5097595;28;19912;-27
2022/11/16 00:48:56;;;;;;;;;;;;;;;;;;5097221;28;19920;-27
2022/11/16 00:51:22;;;;;;;;;;;;;;;;;;5097309;28;19919;-30
2022/11/16 00:53:48;;;;;;;;;;;;;;;;;;5097908;28;19912;-26
2022/11/16 00:56:14;;;;;;;;;;;;;;;;;;5097189;28;19914;-25
2022/11/16 00:58:40;;;;;;;;;;;;;;;;;;5097264;28;19912;-27
2022/11/16 01:01:06;;;;;;;;;;;;;;;;;;5096985;28;20220;-27
2022/11/16 01:03:32;;;;;;;;;;;;;;;;;;5097067;28;19912;-30
2022/11/16 01:05:58;;;;;;;;;;;;;;;;;;5096831;28;19908;-27
2022/11/16 01:08:24;;;;;;;;;;;;;;;;;;5096480;28;20267;-30
2022/11/16 01:10:50;;;;;;;;;;;;;;;;;;5097049;28;19908;-26
2022/11/16 01:13:16;;;;;;;;;;;;;;;;;;5096696;28;20394;-29
2022/11/16 01:15:41;;;;;;;;;;;;;;;;;;5096638;28;20053;-27
2022/11/16 01:18:07;;;;;;;;;;;;;;;;;;5096733;28;19908;-28
2022/11/16 01:20:33;;;;;;;;;;;;;;;;;;5096664;28;19912;-29
2022/11/16 01:22:59;;;;;;;;;;;;;;;;;;5096732;28;19930;-25
2022/11/16 01:25:25;;;;;;;;;;;;;;;;;;5096580;28;19912;-29
2022/11/16 01:27:51;;;;;;;;;;;;;;;;;;5096789;28;19935;-26
2022/11/16 01:30:17;;;;;;;;;;;;;;;;;;5096415;28;19923;-31
2022/11/16 01:32:43;;;;;;;;;;;;;;;;;;5096402;28;20002;-28
2022/11/16 01:35:09;;;;;;;;;;;;;;;;;;5096392;28;20259;-28
2022/11/16 01:37:35;;;;;;;;;;;;;;;;;;5096334;28;19912;-27
2022/11/16 01:40:01;;;;;;;;;;;;;;;;;;5096229;28;19919;-28
2022/11/16 01:42:27;;;;;;;;;;;;;;;;;;5096197;28;19919;-29
2022/11/16 01:44:53;;;;;;;;;;;;;;;;;;5096166;28;19912;-29
2022/11/16 01:47:19;;;;;;;;;;;;;;;;;;5096426;28;19908;-26
2022/11/16 01:49:45;;;;;;;;;;;;;;;;;;5095960;28;20435;-24
2022/11/16 01:52:11;;;;;;;;;;;;;;;;;;5096071;28;19908;-29
2022/11/16 01:54:37;;;;;;;;;;;;;;;;;;5096006;28;19912;-26
2022/11/16 01:57:03;;;;;;;;;;;;;;;;;;5095934;28;20007;-26
2022/11/16 01:59:29;;;;;;;;;;;;;;;;;;5095889;28;19912;-26
2022/11/16 02:01:55;;;;;;;;;;;;;;;;;;5095814;28;19961;-27
2022/11/16 02:04:21;;;;;;;;;;;;;;;;;;5095835;28;19995;-30
2022/11/16 02:06:47;;;;;;;;;;;;;;;;;;5095802;28;19939;-27
2022/11/16 02:11:58;;;;;;;;;;;;;;;;;;5095704;28;19958;-26
2022/11/16 02:14:24;;;;;;;;;;;;;;;;;;5095743;28;19912;-28
2022/11/16 02:16:50;;;;;;;;;;;;;;;;;;5095604;28;19912;-26
2022/11/16 02:19:16;;;;;;;;;;;;;;;;;;5095833;28;19908;-28
2022/11/16 02:21:42;;;;;;;;;;;;;;;;;;5095816;28;20073;-29
2022/11/16 02:24:08;;;;;;;;;;;;;;;;;;5095376;28;20001;-26
2022/11/16 02:26:34;;;;;;;;;;;;;;;;;;5095695;28;19962;-31
2022/11/16 02:29:00;;;;;;;;;;;;;;;;;;5095629;28;20306;-25
2022/11/16 02:31:26;;;;;;;;;;;;;;;;;;5095301;28;20011;-28
2022/11/16 02:33:52;;;;;;;;;;;;;;;;;;5095239;28;19939;-28
2022/11/16 02:36:18;;;;;;;;;;;;;;;;;;5095242;28;19943;-26
2022/11/16 02:38:44;;;;;;;;;;;;;;;;;;5094831;28;19915;-30
2022/11/16 02:41:10;;;;;;;;;;;;;;;;;;5095761;28;19938;-25
2022/11/16 02:43:36;;;;;;;;;;;;;;;;;;5095122;28;19908;-25
2022/11/16 02:46:02;;;;;;;;;;;;;;;;;;5095016;28;20007;-27
2022/11/16 02:48:28;;;;;;;;;;;;;;;;;;5094981;28;19956;-24
2022/11/16 02:50:54;;;;;;;;;;;;;;;;;;5095037;28;19912;-29
2022/11/16 02:53:20;;;;;;;;;;;;;;;;;;5094922;28;20286;-31
2022/11/16 02:55:46;;;;;;;;;;;;;;;;;;5095028;28;19961;-26
2022/11/16 02:58:12;;;;;;;;;;;;;;;;;;5094902;28;20386;-26
2022/11/16 03:00:42;;;;;;;;;;;;;;;;;;5095250;28;19982;-28
2022/11/16 03:03:08;;;;;;;;;;;;;;;;;;5094791;28;20254;-25
2022/11/16 03:05:34;;;;;;;;;;;;;;;;;;5095148;28;19912;-28
2022/11/16 03:08:00;;;;;;;;;;;;;;;;;;5094600;28;20007;-30
2022/11/16 03:13:11;;;;;;;;;;;;;;;;;;5094782;28;20007;-29
2022/11/16 03:15:37;;;;;;;;;;;;;;;;;;5094994;28;19935;-27
2022/11/16 03:18:03;;;;;;;;;;;;;;;;;;5094670;28;19916;-27
2022/11/16 03:20:29;;;;;;;;;;;;;;;;;;5094698;28;19912;-24
2022/11/16 03:22:55;;;;;;;;;;;;;;;;;;5094623;28;19912;-28
2022/11/16 03:25:21;;;;;;;;;;;;;;;;;;5094023;28;19912;-25
2022/11/16 03:27:47;;;;;;;;;;;;;;;;;;5094646;28;19912;-29
2022/11/16 03:30:12;;;;;;;;;;;;;;;;;;5094870;28;20070;-27
2022/11/16 03:32:38;;;;;;;;;;;;;;;;;;5094828;28;19912;-24
2022/11/16 03:35:04;;;;;;;;;;;;;;;;;;5094869;28;20369;-27
2022/11/16 03:37:30;;;;;;;;;;;;;;;;;;5094841;28;19923;-26
2022/11/16 03:39:57;;;;;;;;;;;;;;;;;;5094752;28;19974;-31
2022/11/16 03:42:23;;;;;;;;;;;;;;;;;;5094694;28;19914;-25
2022/11/16 03:44:49;;;;;;;;;;;;;;;;;;5094457;28;20002;-24
2022/11/16 03:47:15;;;;;;;;;;;;;;;;;;5094736;28;20365;-27
2022/11/16 03:49:41;;;;;;;;;;;;;;;;;;5094282;28;20261;-28
2022/11/16 03:52:07;;;;;;;;;;;;;;;;;;5096486;28;19969;-26
2022/11/16 03:54:33;;;;;;;;;;;;;;;;;;5098284;28;19920;-26
2022/11/16 03:56:59;;;;;;;;;;;;;;;;;;5098227;28;19908;-25
2022/11/16 03:59:25;;;;;;;;;;;;;;;;;;5098245;28;19912;-27
2022/11/16 04:01:51;;;;;;;;;;;;;;;;;;5098375;28;19961;-27
2022/11/16 04:26:16;;;;;;;;;;;;;;;;;;5098079;28;19923;-31
2022/11/16 04:28:42;;;;;;;;;;;;;;;;;;5097615;28;20259;-30
2022/11/16 04:39:21;;;;;;;;;;;;;;;;;;5097566;28;19923;-26
2022/11/16 04:47:05;;;;;;;;;;;;;;;;;;5097715;28;19998;-28
2022/11/16 04:47:18;;;;;;;;;;;;;;;;;;5097328;28;19990;-27
2022/11/16 04:49:44;;;;;;;;;;;;;;;;;;5097411;28;20067;-24
2022/11/16 04:52:10;;;;;;;;;;;;;;;;;;5097132;28;20003;-28
2022/11/16 04:54:36;;;;;;;;;;;;;;;;;;5097064;28;19919;-31
2022/11/16 04:57:02;;;;;;;;;;;;;;;;;;5097524;28;19940;-24
2022/11/16 04:59:28;;;;;;;;;;;;;;;;;;5096910;28;19966;-26
2022/11/16 05:02:06;;;;;;;;;;;;;;;;;;5096405;28;19912;-24
2022/11/16 05:04:32;;;;;;;;;;;;;;;;;;5096849;28;19916;-30
2022/11/16 05:06:58;;;;;;;;;;;;;;;;;;5096841;28;19961;-28
2022/11/16 05:09:24;;;;;;;;;;;;;;;;;;5095464;28;19927;-27
2022/11/16 05:11:50;;;;;;;;;;;;;;;;;;5096395;28;19912;-25
2022/11/16 05:14:16;;;;;;;;;;;;;;;;;;5096706;28;19912;-26
2022/11/16 05:16:42;;;;;;;;;;;;;;;;;;5096344;28;19920;-29
2022/11/16 05:21:53;;;;;;;;;;;;;;;;;;5096456;28;20349;-28
2022/11/16 05:24:34;;;;;;;;;;;;;;;;;;5096245;28;19995;-27
2022/11/16 05:27:00;;;;;;;;;;;;;;;;;;5096401;28;19912;-26
2022/11/16 05:29:26;;;;;;;;;;;;;;;;;;5096202;28;20375;-29
2022/11/16 05:31:52;;;;;;;;;;;;;;;;;;5095974;28;19999;-26
2022/11/16 05:34:18;;;;;;;;;;;;;;;;;;5095889;28;20381;-28
2022/11/16 05:36:44;;;;;;;;;;;;;;;;;;5096163;28;19911;-24
2022/11/16 05:39:10;;;;;;;;;;;;;;;;;;5096049;28;19912;-26
2022/11/16 05:41:36;;;;;;;;;;;;;;;;;;5095932;28;19942;-27
2022/11/16 05:44:02;;;;;;;;;;;;;;;;;;5096260;28;20313;-28
2022/11/16 05:46:28;;;;;;;;;;;;;;;;;;5095728;28;19934;-27
2022/11/16 05:48:54;;;;;;;;;;;;;;;;;;5095414;28;20378;-26
2022/11/16 05:51:20;;;;;;;;;;;;;;;;;;5095430;28;19965;-29
2022/11/16 05:53:48;;;;;;;;;;;;;;;;;;5095629;28;19919;-29
2022/11/16 05:56:14;;;;;;;;;;;;;;;;;;5095621;28;19912;-30
2022/11/16 05:58:40;;;;;;;;;;;;;;;;;;5095636;28;19908;-25
2022/11/16 06:01:06;;;;;;;;;;;;;;;;;;5095502;28;19912;-30
2022/11/16 06:03:32;;;;;;;;;;;;;;;;;;5095327;28;19908;-28
2022/11/16 06:05:58;;;;;;;;;;;;;;;;;;5095363;28;19934;-28
2022/11/16 06:08:24;;;;;;;;;;;;;;;;;;5095205;28;19928;-37
2022/11/16 06:10:50;;;;;;;;;;;;;;;;;;5095624;28;20262;-28
2022/11/16 06:13:16;;;;;;;;;;;;;;;;;;5095194;28;20311;-27
2022/11/16 06:15:42;;;;;;;;;;;;;;;;;;5094964;28;19943;-31
2022/11/16 06:18:08;;;;;;;;;;;;;;;;;;5095033;28;20305;-26
2022/11/16 06:20:34;;;;;;;;;;;;;;;;;;5095186;28;19908;-27
2022/11/16 06:23:00;;;;;;;;;;;;;;;;;;5095435;28;19912;-31
2022/11/16 06:25:26;;;;;;;;;;;;;;;;;;5095171;28;19923;-28
2022/11/16 06:27:52;;;;;;;;;;;;;;;;;;5094998;28;19980;-32
2022/11/16 06:30:18;;;;;;;;;;;;;;;;;;5095277;28;19912;-32
2022/11/16 06:32:44;;;;;;;;;;;;;;;;;;5095099;28;20057;-26
2022/11/16 06:35:10;;;;;;;;;;;;;;;;;;5093982;28;19912;-27
2022/11/16 06:37:36;;;;;;;;;;;;;;;;;;5094846;28;19912;-25
2022/11/16 06:40:02;;;;;;;;;;;;;;;;;;5094961;28;19912;-26
2022/11/16 06:42:28;;;;;;;;;;;;;;;;;;5095440;28;19965;-29
2022/11/16 06:44:54;;;;;;;;;;;;;;;;;;5094670;28;20006;-26
2022/11/16 06:47:20;;;;;;;;;;;;;;;;;;5094652;28;20006;-32
2022/11/16 06:49:46;;;;;;;;;;;;;;;;;;5094596;28;19923;-25
2022/11/16 06:52:12;;;;;;;;;;;;;;;;;;5094548;28;20358;-27
2022/11/16 06:54:38;;;;;;;;;;;;;;;;;;5095106;28;19912;-31
2022/11/16 06:57:04;;;;;;;;;;;;;;;;;;5094504;28;19909;-27
2022/11/16 06:59:30;;;;;;;;;;;;;;;;;;5093824;28;19923;-29
2022/11/16 07:01:56;;;;;;;;;;;;;;;;;;5094912;28;19923;-28
2022/11/16 07:04:22;;;;;;;;;;;;;;;;;;5094886;28;19912;-31
2022/11/16 07:06:48;;;;;;;;;;;;;;;;;;5094531;28;19912;-25
2022/11/16 07:09:14;;;;;;;;;;;;;;;;;;5094233;28;19927;-24
2022/11/16 07:11:40;;;;;;;;;;;;;;;;;;5094920;28;19908;-30
2022/11/16 07:14:06;;;;;;;;;;;;;;;;;;5094232;28;19912;-28
2022/11/16 07:16:32;;;;;;;;;;;;;;;;;;5093881;28;19908;-31
2022/11/16 07:18:58;;;;;;;;;;;;;;;;;;5093794;28;20270;-28
2022/11/16 07:21:24;;;;;;;;;;;;;;;;;;5093691;28;20262;-26
2022/11/16 07:23:50;;;;;;;;;;;;;;;;;;5092657;28;19919;-30
2022/11/16 07:26:16;;;;;;;;;;;;;;;;;;5096266;28;20006;-28
2022/11/16 07:28:42;;;;;;;;;;;;;;;;;;5098155;28;19912;-24
2022/11/16 07:31:08;;;;;;;;;;;;;;;;;;5097850;28;19919;-27
2022/11/16 07:33:34;;;;;;;;;;;;;;;;;;5097745;28;19912;-28
2022/11/16 07:36:00;;;;;;;;;;;;;;;;;;5097923;28;19923;-28
2022/11/16 07:38:26;;;;;;;;;;;;;;;;;;5098221;28;19908;-28
2022/11/16 07:40:52;;;;;;;;;;;;;;;;;;5098408;28;19976;-29
2022/11/16 07:43:18;;;;;;;;;;;;;;;;;;5098042;28;20339;-29
2022/11/16 07:45:44;;;;;;;;;;;;;;;;;;5098344;28;20297;-25
2022/11/16 07:48:10;;;;;;;;;;;;;;;;;;5098313;28;20045;-28
2022/11/16 07:50:36;;;;;;;;;;;;;;;;;;5098089;28;19924;-28
2022/11/16 07:53:02;;;;;;;;;;;;;;;;;;5098272;28;19912;-29
2022/11/16 07:55:31;;;;;;;;;;;;;;;;;;5098765;28;19912;-27
2022/11/16 07:57:57;;;;;;;;;;;;;;;;;;5098322;28;19920;-27
2022/11/16 08:00:23;;;;;;;;;;;;;;;;;;5097970;28;20354;-24
2022/11/16 08:02:49;;;;;;;;;;;;;;;;;;5097798;28;20346;-26
2022/11/16 08:05:15;;;;;;;;;;;;;;;;;;5097892;28;19919;-24
2022/11/16 08:07:41;;;;;;;;;;;;;;;;;;5098105;28;19916;-29
2022/11/16 08:10:07;;;;;;;;;;;;;;;;;;5097759;28;19931;-29
2022/11/16 08:12:33;;;;;;;;;;;;;;;;;;5097680;28;19912;-26
2022/11/16 08:14:59;;;;;;;;;;;;;;;;;;5097756;28;19923;-26
2022/11/16 08:17:25;;;;;;;;;;;;;;;;;;5096370;28;19962;-26
2022/11/16 08:19:52;;;;;;;;;;;;;;;;;;5097861;28;19962;-30
2022/11/16 08:22:18;;;;;;;;;;;;;;;;;;5097506;28;19912;-28
2022/11/16 08:24:44;;;;;;;;;;;;;;;;;;5097786;28;19912;-31
2022/11/16 08:27:11;;;;;;;;;;;;;;;;;;5097450;28;19935;-28
2022/11/16 08:29:37;;;;;;;;;;;;;;;;;;5097239;28;19916;-29
2022/11/16 08:32:03;;;;;;;;;;;;;;;;;;5097311;28;19915;-28
2022/11/16 08:34:29;;;;;;;;;;;;;;;;;;5096419;28;19941;-23
2022/11/16 08:36:55;;;;;;;;;;;;;;;;;;5096626;28;19919;-24
2022/11/16 08:39:21;;;;;;;;;;;;;;;;;;5097263;28;20308;-29
2022/11/16 08:41:48;;;;;;;;;;;;;;;;;;5097204;28;19912;-28
2022/11/16 08:44:14;;;;;;;;;;;;;;;;;;5097139;28;19919;-26
2022/11/16 08:46:40;;;;;;;;;;;;;;;;;;5096921;28;19908;-23
2022/11/16 08:49:06;;;;;;;;;;;;;;;;;;5097163;28;19982;-27
2022/11/16 08:51:32;;;;;;;;;;;;;;;;;;5096822;28;20405;-26
2022/11/16 08:53:58;;;;;;;;;;;;;;;;;;5096525;28;19930;-27
2022/11/16 08:56:29;;;;;;;;;;;;;;;;;;5096753;28;19945;-25
2022/11/16 08:58:55;;;;;;;;;;;;;;;;;;5097470;28;20239;-27
2022/11/16 09:01:21;;;;;;;;;;;;;;;;;;5096457;28;19951;-26
2022/11/16 09:03:47;;;;;;;;;;;;;;;;;;5096856;28;19923;-26
2022/11/16 09:06:13;;;;;;;;;;;;;;;;;;5096627;28;19927;-28
2022/11/16 09:08:39;;;;;;;;;;;;;;;;;;5096458;28;20273;-27
2022/11/16 09:11:05;;;;;;;;;;;;;;;;;;5096391;28;19923;-27
2022/11/16 09:13:31;;;;;;;;;;;;;;;;;;5096669;28;19908;-23
2022/11/16 09:15:57;;;;;;;;;;;;;;;;;;5096467;28;19915;-29
2022/11/16 09:18:23;;;;;;;;;;;;;;;;;;5096278;28;19973;-27
2022/11/16 09:20:50;;;;;;;;;;;;;;;;;;5096554;28;19969;-27
2022/11/16 09:23:16;;;;;;;;;;;;;;;;;;5096123;28;19912;-26
2022/11/16 09:25:44;;;;;;;;;;;;;;;;;;5095024;28;19915;-23
2022/11/16 09:28:10;;;;;;;;;;;;;;;;;;5095939;28;19973;-32
2022/11/16 09:30:36;;;;;;;;;;;;;;;;;;5095729;28;19945;-26
2022/11/16 09:33:02;;;;;;;;;;;;;;;;;;5095067;28;19912;-29
2022/11/16 09:35:28;;;;;;;;;;;;;;;;;;5096152;28;19912;-24
2022/11/16 09:37:54;;;;;;;;;;;;;;;;;;5096014;28;19916;-25
2022/11/16 09:40:20;;;;;;;;;;;;;;;;;;5095908;28;19908;-24
2022/11/16 09:42:46;;;;;;;;;;;;;;;;;;5095711;28;19934;-27
2022/11/16 09:45:13;;;;;;;;;;;;;;;;;;5095656;28;20287;-28
2022/11/16 09:47:39;;;;;;;;;;;;;;;;;;5095501;28;20273;-28
2022/11/16 09:50:05;;;;;;;;;;;;;;;;;;5094568;28;19927;-29
2022/11/16 09:52:31;;;;;;;;;;;;;;;;;;5095387;28;20321;-26
2022/11/16 09:54:57;;;;;;;;;;;;;;;;;;5095247;28;19962;-25
2022/11/16 09:57:23;;;;;;;;;;;;;;;;;;5095280;28;20033;-30
2022/11/16 09:59:49;;;;;;;;;;;;;;;;;;5095219;28;19969;-26
2022/11/16 10:02:16;;;;;;;;;;;;;;;;;;5095158;28;19912;-27
2022/11/16 10:04:42;;;;;;;;;;;;;;;;;;5095010;28;19940;-26
2022/11/16 10:07:08;;;;;;;;;;;;;;;;;;5095016;28;19915;-28
2022/11/16 10:09:34;;;;;;;;;;;;;;;;;;5094869;28;19920;-28
2022/11/16 10:12:00;;;;;;;;;;;;;;;;;;5094686;28;19923;-29
2022/11/16 10:14:26;;;;;;;;;;;;;;;;;;5094696;28;20037;-28
2022/11/16 10:16:54;;;;;;;;;;;;;;;;;;5094900;28;19923;-26
2022/11/16 10:19:20;;;;;;;;;;;;;;;;;;5093673;28;20002;-25
2022/11/16 10:21:46;;;;;;;;;;;;;;;;;;5094801;28;20014;-27
2022/11/16 10:24:12;;;;;;;;;;;;;;;;;;5095166;28;20352;-29
2022/11/16 10:26:38;;;;;;;;;;;;;;;;;;5095354;28;19993;-27
2022/11/16 10:29:04;;;;;;;;;;;;;;;;;;5095016;28;19970;-27
2022/11/16 10:31:30;;;;;;;;;;;;;;;;;;5095206;28;19912;-23
2022/11/16 10:33:56;;;;;;;;;;;;;;;;;;5095140;28;19912;-30
2022/11/16 10:36:25;;;;;;;;;;;;;;;;;;5093992;28;19949;-26
2022/11/16 10:38:51;;;;;;;;;;;;;;;;;;5095007;28;19996;-31
2022/11/16 10:41:18;;;;;;;;;;;;;;;;;;5095152;28;20262;-28
2022/11/16 10:43:44;;;;;;;;;;;;;;;;;;5095342;28;19995;-27
2022/11/16 10:46:11;;;;;;;;;;;;;;;;;;5095107;28;19952;-28
2022/11/16 10:48:40;;;;;;;;;;;;;;;;;;5095031;28;19915;-30
2022/11/16 10:51:05;;;;;;;;;;;;;;;;;;5094792;28;19916;-28
2022/11/16 10:53:32;;;;;;;;;;;;;;;;;;5094797;28;19915;-28
2022/11/16 10:55:57;;;;;;;;;;;;;;;;;;5095085;28;19919;-27
2022/11/16 10:58:24;;;;;;;;;;;;;;;;;;5094703;28;19908;-25
2022/11/16 11:00:50;;;;;;;;;;;;;;;;;;5094273;28;19912;-25
2022/11/16 11:03:16;;;;;;;;;;;;;;;;;;5094310;28;19912;-24
2022/11/16 11:05:42;;;;;;;;;;;;;;;;;;5094736;28;19980;-28
2022/11/16 11:08:08;;;;;;;;;;;;;;;;;;5094326;28;20370;-24
2022/11/16 11:10:37;;;;;;;;;;;;;;;;;;5093850;28;20281;-27
2022/11/16 11:13:03;;;;;;;;;;;;;;;;;;5094702;28;19923;-30
2022/11/16 11:15:29;;;;;;;;;;;;;;;;;;5094799;28;19935;-26
2022/11/16 11:17:55;;;;;;;;;;;;;;;;;;5094372;28;19918;-27
2022/11/16 11:20:21;;;;;;;;;;;;;;;;;;5094446;28;19982;-28
2022/11/16 11:22:47;;;;;;;;;;;;;;;;;;5094557;28;19931;-30
2022/11/16 11:25:13;;;;;;;;;;;;;;;;;;5094611;28;19919;-25
2022/11/16 11:27:39;;;;;;;;;;;;;;;;;;5094494;28;20254;-27
2022/11/16 11:30:05;;;;;;;;;;;;;;;;;;5094591;28;19998;-28
2022/11/16 11:32:31;;;;;;;;;;;;;;;;;;5094343;28;20314;-27
2022/11/16 11:34:59;;;;;;;;;;;;;;;;;;5094418;28;19978;-29
2022/11/16 11:37:25;;;;;;;;;;;;;;;;;;5094624;28;19916;-29
2022/11/16 11:39:51;;;;;;;;;;;;;;;;;;5094338;28;19953;-26
2022/11/16 11:42:17;;;;;;;;;;;;;;;;;;5094013;28;19908;-25
2022/11/16 11:44:50;;;;;;;;;;;;;;;;;;5094127;28;19916;-23
2022/11/16 11:47:16;;;;;;;;;;;;;;;;;;5094204;28;19942;-24
2022/11/16 11:49:44;;;;;;;;;;;;;;;;;;5093194;28;19936;-29
2022/11/16 11:52:10;;;;;;;;;;;;;;;;;;5093928;28;19999;-28
2022/11/16 11:54:36;;;;;;;;;;;;;;;;;;5094239;28;19952;-28
2022/11/16 11:57:02;;;;;;;;;;;;;;;;;;5094095;28;19995;-27
2022/11/16 11:59:28;;;;;;;;;;;;;;;;;;5093727;28;19973;-26
2022/11/16 12:01:54;;;;;;;;;;;;;;;;;;5093874;28;19915;-25
2022/11/16 12:04:20;;;;;;;;;;;;;;;;;;5093579;28;20197;-25
2022/11/16 12:06:47;;;;;;;;;;;;;;;;;;5093607;28;19922;-27
2022/11/16 12:09:13;;;;;;;;;;;;;;;;;;5093354;28;20043;-26
2022/11/16 12:11:39;;;;;;;;;;;;;;;;;;5093656;28;20053;-25
2022/11/16 12:14:05;;;;;;;;;;;;;;;;;;5097190;28;19931;-28
2022/11/16 12:16:32;;;;;;;;;;;;;;;;;;5097432;28;19912;-23
2022/11/16 12:18:58;;;;;;;;;;;;;;;;;;5096211;28;19955;-27
2022/11/16 12:21:24;;;;;;;;;;;;;;;;;;5097314;28;19912;-28
2022/11/16 12:23:50;;;;;;;;;;;;;;;;;;5097800;28;19909;-31
2022/11/16 12:26:16;;;;;;;;;;;;;;;;;;5097846;28;19994;-27
2022/11/16 12:28:42;;;;;;;;;;;;;;;;;;5097447;28;20406;-24
2022/11/16 12:31:09;;;;;;;;;;;;;;;;;;5097238;28;20015;-27
2022/11/16 12:33:35;;;;;;;;;;;;;;;;;;5097416;28;20010;-24
2022/11/16 12:36:01;;;;;;;;;;;;;;;;;;5097241;28;20330;-27
2022/11/16 12:38:27;;;;;;;;;;;;;;;;;;5097356;28;19912;-30
2022/11/16 12:40:53;;;;;;;;;;;;;;;;;;5097383;28;19942;-26
2022/11/16 12:43:19;;;;;;;;;;;;;;;;;;5096026;28;19913;-27
2022/11/16 12:45:45;;;;;;;;;;;;;;;;;;5097000;28;20018;-27
2022/11/16 12:48:11;;;;;;;;;;;;;;;;;;5096038;28;20252;-28
2022/11/16 12:50:37;;;;;;;;;;;;;;;;;;5096797;28;19922;-26
2022/11/16 12:53:03;;;;;;;;;;;;;;;;;;5096880;28;19912;-25
2022/11/16 12:55:29;;;;;;;;;;;;;;;;;;5096850;28;19962;-27
2022/11/16 12:57:55;;;;;;;;;;;;;;;;;;5096922;28;20369;-28
2022/11/16 13:00:21;;;;;;;;;;;;;;;;;;5096741;28;19963;-32
2022/11/16 13:02:47;;;;;;;;;;;;;;;;;;5096539;28;20251;-23
2022/11/16 13:05:13;;;;;;;;;;;;;;;;;;5096781;28;19912;-26
2022/11/16 13:07:39;;;;;;;;;;;;;;;;;;5096955;28;19924;-30
2022/11/16 13:10:05;;;;;;;;;;;;;;;;;;5096330;28;19921;-26
2022/11/16 13:12:31;;;;;;;;;;;;;;;;;;5095456;28;20262;-24
2022/11/16 13:14:57;;;;;;;;;;;;;;;;;;5096544;28;19908;-31
2022/11/16 13:17:23;;;;;;;;;;;;;;;;;;5095470;28;19927;-33
2022/11/16 13:19:49;;;;;;;;;;;;;;;;;;5096323;28;19912;-27
2022/11/16 13:22:15;;;;;;;;;;;;;;;;;;5096387;28;19919;-28
2022/11/16 13:24:41;;;;;;;;;;;;;;;;;;5096251;28;20274;-27
2022/11/16 13:27:07;;;;;;;;;;;;;;;;;;5095528;28;19912;-25
2022/11/16 13:29:33;;;;;;;;;;;;;;;;;;5096578;28;19923;-24
2022/11/16 13:31:59;;;;;;;;;;;;;;;;;;5096291;28;20342;-28
2022/11/16 13:34:26;;;;;;;;;;;;;;;;;;5096100;28;19958;-24
2022/11/16 13:36:52;;;;;;;;;;;;;;;;;;5096113;28;19923;-26
2022/11/16 13:39:18;;;;;;;;;;;;;;;;;;5096369;28;19999;-24
2022/11/16 13:41:44;;;;;;;;;;;;;;;;;;5095113;28;20287;-26
2022/11/16 13:44:10;;;;;;;;;;;;;;;;;;5095945;28;19955;-24
2022/11/16 13:46:36;;;;;;;;;;;;;;;;;;5095952;28;20008;-29
2022/11/16 13:49:02;;;;;;;;;;;;;;;;;;5095776;28;19912;-27
2022/11/16 13:51:28;;;;;;;;;;;;;;;;;;5095748;28;19913;-23
2022/11/16 13:53:54;;;;;;;;;;;;;;;;;;5095941;28;19923;-23
2022/11/16 13:56:20;;;;;;;;;;;;;;;;;;5094923;28;19919;-24
2022/11/16 13:58:46;;;;;;;;;;;;;;;;;;5095877;28;19985;-26
2022/11/16 14:01:15;;;;;;;;;;;;;;;;;;5095685;28;19912;-25
2022/11/16 14:03:41;;;;;;;;;;;;;;;;;;5095471;28;19987;-31
2022/11/16 14:06:07;;;;;;;;;;;;;;;;;;5095863;28;20304;-29
2022/11/16 14:08:35;;;;;;;;;;;;;;;;;;5095678;28;19920;-27
2022/11/16 14:11:02;;;;;;;;;;;;;;;;;;5095860;28;19989;-27
2022/11/16 14:13:28;;;;;;;;;;;;;;;;;;5095741;28;19916;-28
2022/11/16 14:15:54;;;;;;;;;;;;;;;;;;5095468;28;20317;-24
2022/11/16 14:18:20;;;;;;;;;;;;;;;;;;5095689;28;20007;-27
2022/11/16 14:20:46;;;;;;;;;;;;;;;;;;5094340;28;19912;-29
2022/11/16 14:23:12;;;;;;;;;;;;;;;;;;5095358;28;19912;-26
2022/11/16 14:25:38;;;;;;;;;;;;;;;;;;5095789;28;19959;-28
2022/11/16 14:28:04;;;;;;;;;;;;;;;;;;5095220;28;19919;-23
2022/11/16 14:30:30;;;;;;;;;;;;;;;;;;5095135;28;19912;-26
2022/11/16 14:32:56;;;;;;;;;;;;;;;;;;5095518;28;19955;-28
2022/11/16 14:35:22;;;;;;;;;;;;;;;;;;5094768;28;19965;-25
2022/11/16 14:37:48;;;;;;;;;;;;;;;;;;5095248;28;19970;-25
2022/11/16 14:40:14;;;;;;;;;;;;;;;;;;5095254;28;20301;-28
2022/11/16 14:42:40;;;;;;;;;;;;;;;;;;5095068;28;19930;-25
2022/11/16 14:45:06;;;;;;;;;;;;;;;;;;5095418;28;19912;-25
2022/11/16 14:47:32;;;;;;;;;;;;;;;;;;5095047;28;19987;-27
2022/11/16 14:49:58;;;;;;;;;;;;;;;;;;5095392;28;20262;-27
2022/11/16 14:52:24;;;;;;;;;;;;;;;;;;5095167;28;20244;-29
2022/11/16 14:54:50;;;;;;;;;;;;;;;;;;5094880;28;19927;-32
2022/11/16 14:57:16;;;;;;;;;;;;;;;;;;5094960;28;20291;-27
2022/11/16 14:59:42;;;;;;;;;;;;;;;;;;5095445;28;20236;-28
2022/11/16 15:02:08;;;;;;;;;;;;;;;;;;5094772;28;19916;-27
2022/11/16 15:04:34;;;;;;;;;;;;;;;;;;5094794;28;19912;-25
2022/11/16 15:07:00;;;;;;;;;;;;;;;;;;5094857;28;19908;-26
2022/11/16 15:09:26;;;;;;;;;;;;;;;;;;5094618;28;19978;-26
2022/11/16 15:14:37;;;;;;;;;;;;;;;;;;5095191;28;19938;-24
2022/11/16 15:17:03;;;;;;;;;;;;;;;;;;5094571;28;19931;-27
2022/11/16 15:19:29;;;;;;;;;;;;;;;;;;5094238;28;20388;-25
2022/11/16 15:21:55;;;;;;;;;;;;;;;;;;5094165;28;19908;-24
2022/11/16 15:24:21;;;;;;;;;;;;;;;;;;5094339;28;19965;-27
2022/11/16 15:26:47;;;;;;;;;;;;;;;;;;5094315;28;19915;-31
2022/11/16 15:29:13;;;;;;;;;;;;;;;;;;5093150;28;20350;-28
2022/11/16 15:31:39;;;;;;;;;;;;;;;;;;5094599;28;20052;-27
2022/11/16 15:34:05;;;;;;;;;;;;;;;;;;5094419;28;19919;-30
2022/11/16 15:36:31;;;;;;;;;;;;;;;;;;5094361;28;19981;-24
2022/11/16 15:38:57;;;;;;;;;;;;;;;;;;5094283;28;19919;-26
2022/11/16 15:41:24;;;;;;;;;;;;;;;;;;5094415;28;19932;-27
2022/11/16 15:43:50;;;;;;;;;;;;;;;;;;5094233;28;20044;-27
2022/11/16 15:46:16;;;;;;;;;;;;;;;;;;5095117;28;19947;-26
2022/11/16 15:48:42;;;;;;;;;;;;;;;;;;5098673;28;19928;-29
2022/11/16 15:51:08;;;;;;;;;;;;;;;;;;5098320;28;19946;-28
2022/11/16 15:53:34;;;;;;;;;;;;;;;;;;5098260;28;19923;-33
2022/11/16 15:56:00;;;;;;;;;;;;;;;;;;5098552;28;19961;-26
2022/11/16 15:58:26;;;;;;;;;;;;;;;;;;5098542;28;19951;-26
2022/11/16 16:00:52;;;;;;;;;;;;;;;;;;5098199;28;19932;-28
2022/11/16 16:03:18;;;;;;;;;;;;;;;;;;5098048;28;19912;-23
2022/11/16 16:05:44;;;;;;;;;;;;;;;;;;5098426;28;19918;-27
2022/11/16 16:08:10;;;;;;;;;;;;;;;;;;5098108;28;20010;-26
2022/11/16 16:10:36;;;;;;;;;;;;;;;;;;5098347;28;20287;-30
2022/11/16 16:13:02;;;;;;;;;;;;;;;;;;5098043;28;19911;-24
2022/11/16 16:15:28;;;;;;;;;;;;;;;;;;5096711;28;19912;-27
2022/11/16 16:17:54;;;;;;;;;;;;;;;;;;5097568;28;20032;-28
2022/11/16 16:20:20;;;;;;;;;;;;;;;;;;5097314;28;19947;-28
2022/11/16 16:22:46;;;;;;;;;;;;;;;;;;5097302;28;19912;-30
2022/11/16 16:25:12;;;;;;;;;;;;;;;;;;5097365;28;19969;-31
2022/11/16 16:27:39;;;;;;;;;;;;;;;;;;5097533;28;20335;-27
2022/11/16 16:30:05;;;;;;;;;;;;;;;;;;5097428;28;20310;-28
2022/11/16 16:32:31;;;;;;;;;;;;;;;;;;5097185;28;19913;-25
2022/11/16 16:34:57;;;;;;;;;;;;;;;;;;5097133;28;19967;-30
2022/11/16 16:37:23;;;;;;;;;;;;;;;;;;5097096;28;19912;-29
2022/11/16 16:39:49;;;;;;;;;;;;;;;;;;5097525;28;19968;-26
2022/11/16 16:42:15;;;;;;;;;;;;;;;;;;5097265;28;20304;-31
2022/11/16 16:44:41;;;;;;;;;;;;;;;;;;5097502;28;20354;-27
2022/11/16 16:47:07;;;;;;;;;;;;;;;;;;5097483;28;19908;-27
2022/11/16 16:49:33;;;;;;;;;;;;;;;;;;5097160;28;20053;-29
2022/11/16 16:51:59;;;;;;;;;;;;;;;;;;5097339;28;19908;-28
2022/11/16 16:54:27;;;;;;;;;;;;;;;;;;5097158;28;19944;-25
2022/11/16 16:56:53;;;;;;;;;;;;;;;;;;5097259;28;19954;-27
2022/11/16 16:59:19;;;;;;;;;;;;;;;;;;5096831;28;19912;-23
2022/11/16 17:01:45;;;;;;;;;;;;;;;;;;5097301;28;20266;-29
2022/11/16 17:04:11;;;;;;;;;;;;;;;;;;5097023;28;20007;-27
2022/11/16 17:06:37;;;;;;;;;;;;;;;;;;5096790;28;20346;-30
2022/11/16 17:09:03;;;;;;;;;;;;;;;;;;5096702;28;19977;-27
2022/11/16 17:11:29;;;;;;;;;;;;;;;;;;5095890;28;19919;-33
2022/11/16 17:13:55;;;;;;;;;;;;;;;;;;5096992;28;20392;-30
2022/11/16 17:16:22;;;;;;;;;;;;;;;;;;5097224;28;20286;-27
2022/11/16 17:18:48;;;;;;;;;;;;;;;;;;5096709;28;19913;-30
2022/11/16 17:21:14;;;;;;;;;;;;;;;;;;5096714;28;19919;-28